createdAt,value
2023-03-15T00:02:01.420Z,6.76
2023-03-15T00:04:28.762Z,6.77
2023-03-15T00:06:56.016Z,6.78
2023-03-15T00:09:24.136Z,6.78
2023-03-15T00:11:54.539Z,6.79
2023-03-15T00:14:22.015Z,6.80
2023-03-15T00:16:49.087Z,6.82
2023-03-15T00:19:15.815Z,6.83
2023-03-15T00:21:43.388Z,6.86
2023-03-15T00:24:12.949Z,6.86
2023-03-15T00:26:39.746Z,6.87
2023-03-15T00:29:06.497Z,6.87
2023-03-15T00:31:33.318Z,6.87
2023-03-15T00:34:00.724Z,6.94
2023-03-15T00:36:27.575Z,6.94
2023-03-15T00:38:56.530Z,6.98
2023-03-15T00:41:24.088Z,7.02
2023-03-15T00:43:51.912Z,7.03
2023-03-15T00:46:19.684Z,7.07
2023-03-15T00:48:51.302Z,7.10
2023-03-15T00:51:21.869Z,7.13
2023-03-15T00:53:51.486Z,7.17
2023-03-15T00:56:23.464Z,7.21
2023-03-15T00:58:52.818Z,7.27
2023-03-15T01:01:27.156Z,7.31
2023-03-15T01:03:54.776Z,7.36
2023-03-15T01:06:26.104Z,7.40
2023-03-15T01:08:55.672Z,7.45
2023-03-15T01:11:26.575Z,7.52
2023-03-15T01:13:55.876Z,7.57
2023-03-15T01:16:23.907Z,7.61
2023-03-15T01:18:51.644Z,7.66
2023-03-15T01:21:20.916Z,7.70
2023-03-15T01:23:47.847Z,7.73
2023-03-15T01:26:16.593Z,7.77
2023-03-15T01:28:43.873Z,7.78
2023-03-15T01:31:27.346Z,7.80
2023-03-15T01:33:54.858Z,7.80
2023-03-15T01:36:22.184Z,7.80
2023-03-15T01:38:49.742Z,7.80
2023-03-15T01:41:18.956Z,7.78
2023-03-15T01:43:48.707Z,7.75
2023-03-15T01:46:27.852Z,7.71
2023-03-15T01:49:13.839Z,7.64
2023-03-15T01:51:59.914Z,7.55
2023-03-15T01:54:49.808Z,7.47
2023-03-15T01:57:44.277Z,7.40
2023-03-15T02:00:16.458Z,7.35
2023-03-15T02:03:00.455Z,7.30
2023-03-15T02:05:33.670Z,7.27
2023-03-15T02:08:02.474Z,7.22
2023-03-15T02:10:46.713Z,7.14
2023-03-15T02:13:18.835Z,7.09
2023-03-15T02:15:49.045Z,7.05
2023-03-15T02:18:16.844Z,7.02
2023-03-15T02:21:09.615Z,7.02
2023-03-15T02:23:36.514Z,6.96
2023-03-15T02:26:16.645Z,6.92
2023-03-15T02:28:44.839Z,6.90
2023-03-15T02:31:11.914Z,6.89
2023-03-15T02:33:51.146Z,6.88
2023-03-15T02:36:27.220Z,6.84
2023-03-15T02:38:55.728Z,6.80
2023-03-15T02:41:40.195Z,6.76
2023-03-15T02:44:14.542Z,6.70
2023-03-15T02:46:43.774Z,6.64
2023-03-15T02:49:13.390Z,6.59
2023-03-15T02:51:40.166Z,6.55
2023-03-15T02:54:06.943Z,6.55
2023-03-15T02:56:33.727Z,6.53
2023-03-15T02:59:01.096Z,6.50
2023-03-15T03:01:27.936Z,6.47
2023-03-15T03:03:54.700Z,6.43
2023-03-15T03:06:21.475Z,6.43
2023-03-15T03:08:48.326Z,6.43
2023-03-15T03:11:16.256Z,6.42
2023-03-15T03:13:43.803Z,6.42
2023-03-15T03:16:11.515Z,6.43
2023-03-15T03:18:39.842Z,6.43
2023-03-15T03:21:08.338Z,6.44
2023-03-15T03:23:36.669Z,6.45
2023-03-15T03:26:16.621Z,6.45
2023-03-15T03:28:48.688Z,6.44
2023-03-15T03:31:26.122Z,6.44
2023-03-15T03:33:55.293Z,6.44
2023-03-15T03:36:22.052Z,6.45
2023-03-15T03:38:48.835Z,6.43
2023-03-15T03:41:15.553Z,6.42
2023-03-15T03:43:42.594Z,6.41
2023-03-15T03:46:09.716Z,6.40
2023-03-15T03:48:36.431Z,6.38
2023-03-15T03:51:03.462Z,6.38
2023-03-15T03:53:30.668Z,6.36
2023-03-15T03:55:57.512Z,6.35
2023-03-15T03:58:24.236Z,6.37
2023-03-15T04:00:55.448Z,6.36
2023-03-15T04:03:27.833Z,6.37
2023-03-15T04:05:56.304Z,6.36
2023-03-15T04:08:25.173Z,6.39
2023-03-15T04:10:53.982Z,6.38
2023-03-15T04:13:22.301Z,6.40
2023-03-15T04:15:49.696Z,6.42
2023-03-15T04:18:17.784Z,6.43
2023-03-15T04:20:48.304Z,6.45
2023-03-15T04:23:17.979Z,6.47
2023-03-15T04:25:51.547Z,6.47
2023-03-15T04:28:19.281Z,6.44
2023-03-15T04:30:49.276Z,6.42
2023-03-15T04:33:16.225Z,6.39
2023-03-15T04:35:48.742Z,6.36
2023-03-15T04:38:15.752Z,6.36
2023-03-15T04:40:42.776Z,6.33
2023-03-15T04:43:09.614Z,6.34
2023-03-15T04:45:36.673Z,6.32
2023-03-15T04:48:03.581Z,6.31
2023-03-15T04:50:31.022Z,6.32
2023-03-15T04:52:59.550Z,6.33
2023-03-15T04:55:26.515Z,6.32
2023-03-15T04:57:53.578Z,6.35
2023-03-15T05:00:20.535Z,6.36
2023-03-15T05:02:54.584Z,6.36
2023-03-15T05:05:23.698Z,6.37
2023-03-15T05:07:50.908Z,6.37
2023-03-15T05:10:18.002Z,6.39
2023-03-15T05:12:44.950Z,6.41
2023-03-15T05:15:12.247Z,6.42
2023-03-15T05:17:39.125Z,6.42
2023-03-15T05:20:13.095Z,6.43
2023-03-15T05:22:41.149Z,6.40
2023-03-15T05:25:10.583Z,6.38
2023-03-15T05:27:38.688Z,6.38
2023-03-15T05:30:07.500Z,6.37
2023-03-15T05:32:35.257Z,6.35
2023-03-15T05:35:03.953Z,6.33
2023-03-15T05:37:32.362Z,6.32
2023-03-15T05:40:00.240Z,6.32
2023-03-15T05:42:27.450Z,6.31
2023-03-15T05:44:55.483Z,6.31
2023-03-15T05:47:23.077Z,6.30
2023-03-15T05:49:50.023Z,6.32
2023-03-15T05:52:17.135Z,6.33
2023-03-15T05:54:43.915Z,6.34
2023-03-15T05:57:11.506Z,6.36
2023-03-15T05:59:38.421Z,6.38
2023-03-15T06:02:05.253Z,6.38
2023-03-15T06:04:32.114Z,6.39
2023-03-15T06:06:58.877Z,6.40
2023-03-15T06:09:25.753Z,6.42
2023-03-15T06:11:53.536Z,6.44
2023-03-15T06:14:20.410Z,6.47
2023-03-15T06:16:47.259Z,6.48
2023-03-15T06:19:14.048Z,6.49
2023-03-15T06:21:40.861Z,6.49
2023-03-15T06:24:08.027Z,6.51
2023-03-15T06:26:34.819Z,6.52
2023-03-15T06:29:01.649Z,6.53
2023-03-15T06:31:28.705Z,6.56
2023-03-15T06:33:55.659Z,6.59
2023-03-15T06:36:23.364Z,6.61
2023-03-15T06:38:50.625Z,6.65
2023-03-15T06:41:17.383Z,6.70
2023-03-15T06:43:45.054Z,6.72
2023-03-15T06:46:11.816Z,6.75
2023-03-15T06:48:38.568Z,6.80
2023-03-15T06:51:06.506Z,6.83
2023-03-15T06:53:33.408Z,6.89
2023-03-15T06:56:01.267Z,6.93
2023-03-15T06:58:28.057Z,6.96
2023-03-15T07:00:54.782Z,6.98
2023-03-15T07:03:22.368Z,7.00
2023-03-15T07:05:52.622Z,7.02
2023-03-15T07:08:21.298Z,7.05
2023-03-15T07:10:48.736Z,7.08
2023-03-15T07:13:16.664Z,7.12
2023-03-15T07:15:43.605Z,7.14
2023-03-15T07:18:10.558Z,7.16
2023-03-15T07:20:37.890Z,7.20
2023-03-15T07:23:05.440Z,7.24
2023-03-15T07:25:33.334Z,7.28
2023-03-15T07:28:03.010Z,7.32
2023-03-15T07:30:29.864Z,7.34
2023-03-15T07:32:56.691Z,7.37
2023-03-15T07:35:24.654Z,7.42
2023-03-15T07:37:51.403Z,7.50
2023-03-15T07:40:18.362Z,7.58
2023-03-15T07:42:45.872Z,7.71
2023-03-15T07:45:13.483Z,7.97
2023-03-15T07:47:40.896Z,8.40
2023-03-15T07:50:08.604Z,9.01
2023-03-15T07:52:35.340Z,9.60
2023-03-15T07:55:02.094Z,10.13
2023-03-15T07:57:29.073Z,10.61
2023-03-15T07:59:56.050Z,10.98
2023-03-15T08:02:27.653Z,11.22
2023-03-15T08:04:55.876Z,11.46
2023-03-15T08:07:22.616Z,11.62
2023-03-15T08:09:49.335Z,11.73
2023-03-15T08:12:16.057Z,11.83
2023-03-15T08:14:42.810Z,11.92
2023-03-15T08:17:13.008Z,12.32
2023-03-15T08:19:40.133Z,13.03
2023-03-15T08:22:07.320Z,13.70
2023-03-15T08:24:34.317Z,14.30
2023-03-15T08:27:01.567Z,15.06
2023-03-15T08:29:29.026Z,16.00
2023-03-15T08:31:55.935Z,16.99
2023-03-15T08:34:23.619Z,17.99
2023-03-15T08:36:51.085Z,18.95
2023-03-15T08:39:17.929Z,19.84
2023-03-15T08:41:45.569Z,20.67
2023-03-15T08:44:12.343Z,21.47
2023-03-15T08:46:39.200Z,22.09
2023-03-15T08:49:05.955Z,22.54
2023-03-15T08:51:33.585Z,22.50
2023-03-15T08:54:03.873Z,22.08
2023-03-15T08:56:32.310Z,21.54
2023-03-15T08:58:59.243Z,21.29
2023-03-15T09:01:26.008Z,21.50
2023-03-15T09:03:52.896Z,21.91
2023-03-15T09:06:19.678Z,21.92
2023-03-15T09:08:46.451Z,21.69
2023-03-15T09:11:13.710Z,21.42
2023-03-15T09:13:40.513Z,21.53
2023-03-15T09:16:07.776Z,21.79
2023-03-15T09:18:34.570Z,22.30
2023-03-15T09:21:01.673Z,22.94
2023-03-15T09:23:28.487Z,23.61
2023-03-15T09:25:55.221Z,24.27
2023-03-15T09:28:22.177Z,24.93
2023-03-15T09:30:48.950Z,25.54
2023-03-15T09:33:15.727Z,25.73
2023-03-15T09:35:42.799Z,25.53
2023-03-15T09:38:10.380Z,25.40
2023-03-15T09:40:47.919Z,25.63
2023-03-15T09:43:40.874Z,25.99
2023-03-15T09:46:42.046Z,26.52
2023-03-15T09:49:26.996Z,26.87
2023-03-15T09:52:26.236Z,26.98
2023-03-15T09:55:15.712Z,26.76
2023-03-15T09:58:04.666Z,26.59
2023-03-15T10:00:46.231Z,26.78
2023-03-15T10:03:44.147Z,27.15
2023-03-15T10:06:26.893Z,27.61
2023-03-15T10:09:00.540Z,27.98
2023-03-15T10:12:04.666Z,28.43
2023-03-15T10:15:18.194Z,28.75
2023-03-15T10:17:59.598Z,28.56
2023-03-15T10:20:35.592Z,28.22
2023-03-15T10:23:16.298Z,27.64
2023-03-15T10:25:44.782Z,27.04
2023-03-15T10:28:34.795Z,26.40
2023-03-15T10:31:22.508Z,26.10
2023-03-15T10:33:57.168Z,25.87
2023-03-15T10:36:25.845Z,25.57
2023-03-15T10:38:52.804Z,25.20
2023-03-15T10:41:44.690Z,24.70
2023-03-15T10:44:18.270Z,24.20
2023-03-15T10:47:22.607Z,23.63
2023-03-15T10:49:57.504Z,23.04
2023-03-15T10:52:43.415Z,22.49
2023-03-15T10:55:21.199Z,22.02
2023-03-15T10:57:59.863Z,21.60
2023-03-15T11:00:36.666Z,21.22
2023-03-15T11:03:19.592Z,20.95
2023-03-15T11:05:51.596Z,20.87
2023-03-15T11:08:24.110Z,20.91
2023-03-15T11:10:59.778Z,20.97
2023-03-15T11:13:39.085Z,20.93
2023-03-15T11:16:15.539Z,20.80
2023-03-15T11:18:59.599Z,20.57
2023-03-15T11:21:35.282Z,20.34
2023-03-15T11:24:05.595Z,20.18
2023-03-15T11:26:38.585Z,20.08
2023-03-15T11:29:23.558Z,19.90
2023-03-15T11:31:52.099Z,19.76
2023-03-15T11:34:48.506Z,19.49
2023-03-15T11:37:23.490Z,19.22
2023-03-15T11:40:15.548Z,18.97
2023-03-15T11:43:11.994Z,18.67
2023-03-15T11:45:57.703Z,18.44
2023-03-15T11:48:46.006Z,18.22
2023-03-15T11:51:14.189Z,18.01
2023-03-15T11:54:13.296Z,17.84
2023-03-15T11:56:49.294Z,17.63
2023-03-15T11:59:19.683Z,17.48
2023-03-15T12:01:57.633Z,17.31
2023-03-15T12:04:33.139Z,17.14
2023-03-15T12:07:06.505Z,16.99
2023-03-15T12:09:33.171Z,16.96
2023-03-15T12:12:04.532Z,17.06
2023-03-15T12:14:37.034Z,17.19
2023-03-15T12:17:53.898Z,17.34
2023-03-15T12:20:37.736Z,17.51
2023-03-15T12:23:16.766Z,17.73
2023-03-15T12:25:56.471Z,17.96
2023-03-15T12:28:49.450Z,18.16
2023-03-15T12:31:17.129Z,18.26
2023-03-15T12:33:54.996Z,18.31
2023-03-15T12:36:34.686Z,18.38
2023-03-15T12:39:36.952Z,18.50
2023-03-15T12:42:06.065Z,18.72
2023-03-15T12:44:32.748Z,18.92
2023-03-15T12:47:06.000Z,19.17
2023-03-15T12:49:41.223Z,19.35
2023-03-15T12:52:11.006Z,19.45
2023-03-15T12:55:15.972Z,19.51
2023-03-15T12:57:57.983Z,19.48
2023-03-15T13:00:30.250Z,19.47
2023-03-15T13:03:11.598Z,19.51
2023-03-15T13:06:24.637Z,19.55
2023-03-15T13:09:39.466Z,19.57
2023-03-15T13:12:20.209Z,19.52
2023-03-15T13:15:02.807Z,19.52
2023-03-15T13:17:52.783Z,19.52
2023-03-15T13:20:59.344Z,19.51
2023-03-15T13:23:29.816Z,19.47
2023-03-15T13:26:18.159Z,19.44
2023-03-15T13:29:00.957Z,19.44
2023-03-15T13:31:31.638Z,19.45
2023-03-15T13:34:15.352Z,19.45
2023-03-15T13:36:49.285Z,19.44
2023-03-15T13:39:27.673Z,19.39
2023-03-15T13:42:04.484Z,19.33
2023-03-15T13:45:39.772Z,19.24
2023-03-15T13:47:26.655Z,19.17
2023-03-15T13:49:53.552Z,19.08
2023-03-15T13:52:20.592Z,18.99
2023-03-15T13:54:48.727Z,18.88
2023-03-15T13:57:24.832Z,18.81
2023-03-15T13:59:57.126Z,18.76
2023-03-15T14:02:33.155Z,18.74
2023-03-15T14:05:07.132Z,18.68
2023-03-15T14:07:44.254Z,18.58
2023-03-15T14:10:17.139Z,18.47
2023-03-15T14:12:45.716Z,18.42
2023-03-15T14:15:35.890Z,18.36
2023-03-15T14:18:17.179Z,18.25
2023-03-15T14:20:53.762Z,18.12
2023-03-15T14:23:26.445Z,17.99
2023-03-15T14:26:06.852Z,17.87
2023-03-15T14:28:34.580Z,17.79
2023-03-15T14:31:02.674Z,17.70
2023-03-15T14:33:41.862Z,17.61
2023-03-15T14:36:24.724Z,17.54
2023-03-15T14:38:58.031Z,17.47
2023-03-15T14:41:27.556Z,17.40
2023-03-15T14:43:54.377Z,17.29
2023-03-15T14:46:21.565Z,17.19
2023-03-15T14:48:51.127Z,17.09
2023-03-15T14:51:24.894Z,16.90
2023-03-15T14:53:56.338Z,16.71
2023-03-15T14:56:27.532Z,16.54
2023-03-15T14:58:54.337Z,16.35
2023-03-15T15:01:25.871Z,16.14
2023-03-15T15:03:59.653Z,15.91
2023-03-15T15:06:29.895Z,15.70
2023-03-15T15:09:00.092Z,15.56
2023-03-15T15:11:27.258Z,15.45
2023-03-15T15:13:54.244Z,15.41
2023-03-15T15:16:21.001Z,15.38
2023-03-15T15:18:48.531Z,15.39
2023-03-15T15:21:33.692Z,15.40
2023-03-15T15:24:04.880Z,15.35
2023-03-15T15:26:33.429Z,15.22
2023-03-15T15:29:00.802Z,15.15
2023-03-15T15:31:30.091Z,15.09
2023-03-15T15:33:57.443Z,15.03
2023-03-15T15:36:34.000Z,14.96
2023-03-15T15:39:06.447Z,14.82
2023-03-15T15:41:34.266Z,14.69
2023-03-15T15:44:01.605Z,14.56
2023-03-15T15:46:28.485Z,14.46
2023-03-15T15:48:55.355Z,14.38
2023-03-15T15:51:38.525Z,14.33
2023-03-15T15:54:06.573Z,14.29
2023-03-15T15:56:39.992Z,14.26
2023-03-15T15:59:13.624Z,14.19
2023-03-15T16:01:56.720Z,14.16
2023-03-15T16:04:26.200Z,14.05
2023-03-15T16:06:58.635Z,13.98
2023-03-15T16:09:28.601Z,13.90
2023-03-15T16:11:55.640Z,13.85
2023-03-15T16:14:22.573Z,13.80
2023-03-15T16:16:49.349Z,13.72
2023-03-15T16:19:16.151Z,13.66
2023-03-15T16:21:47.791Z,13.60
2023-03-15T16:24:31.795Z,13.50
2023-03-15T16:27:08.123Z,13.43
2023-03-15T16:29:48.194Z,13.37
2023-03-15T16:32:29.815Z,13.31
2023-03-15T16:35:15.445Z,13.20
2023-03-15T16:37:43.381Z,13.11
2023-03-15T16:40:25.269Z,13.09
2023-03-15T16:42:52.431Z,13.03
2023-03-15T16:45:19.670Z,12.97
2023-03-15T16:47:46.687Z,12.94
2023-03-15T16:50:13.423Z,12.88
2023-03-15T16:52:43.415Z,12.81
2023-03-15T16:55:14.455Z,12.73
2023-03-15T16:57:41.713Z,12.65
2023-03-15T17:00:20.295Z,12.56
2023-03-15T17:02:49.967Z,12.47
2023-03-15T17:05:19.102Z,12.40
2023-03-15T17:07:48.617Z,12.32
2023-03-15T17:10:29.537Z,12.22
2023-03-15T17:12:59.737Z,12.15
2023-03-15T17:15:29.038Z,12.06
2023-03-15T17:18:00.336Z,11.98
2023-03-15T17:20:29.105Z,11.89
2023-03-15T17:23:04.139Z,11.80
2023-03-15T17:25:32.848Z,11.74
2023-03-15T17:28:00.410Z,11.66
2023-03-15T17:30:33.888Z,11.58
2023-03-15T17:33:01.509Z,11.53
2023-03-15T17:35:35.960Z,11.47
2023-03-15T17:38:06.386Z,11.42
2023-03-15T17:40:36.158Z,11.33
2023-03-15T17:43:04.029Z,11.31
2023-03-15T17:45:33.525Z,11.25
2023-03-15T17:48:01.894Z,11.20
2023-03-15T17:50:32.592Z,11.15
2023-03-15T17:53:21.029Z,11.08
2023-03-15T17:55:48.964Z,11.01
2023-03-15T17:58:22.749Z,10.97
2023-03-15T18:00:54.712Z,10.93
2023-03-15T18:03:23.588Z,10.90
2023-03-15T18:05:51.931Z,10.84
2023-03-15T18:08:24.923Z,10.78
2023-03-15T18:10:54.870Z,10.74
2023-03-15T18:13:23.401Z,10.69
2023-03-15T18:15:51.206Z,10.65
2023-03-15T18:18:27.121Z,10.60
2023-03-15T18:20:53.964Z,10.54
2023-03-15T18:23:20.646Z,10.50
2023-03-15T18:25:48.207Z,10.46
2023-03-15T18:28:15.050Z,10.44
2023-03-15T18:30:41.928Z,10.40
2023-03-15T18:33:10.799Z,10.36
2023-03-15T18:35:38.100Z,10.33
2023-03-15T18:38:05.500Z,10.29
2023-03-15T18:40:33.859Z,10.26
2023-03-15T18:43:01.412Z,10.20
2023-03-15T18:45:32.292Z,10.17
2023-03-15T18:48:02.162Z,10.11
2023-03-15T18:50:30.299Z,10.06
2023-03-15T18:52:57.805Z,10.04
2023-03-15T18:55:25.044Z,10.02
2023-03-15T18:57:54.570Z,9.97
2023-03-15T19:00:29.423Z,9.90
2023-03-15T19:03:00.175Z,9.86
2023-03-15T19:05:30.669Z,9.82
2023-03-15T19:07:57.921Z,9.79
2023-03-15T19:10:25.726Z,9.77
2023-03-15T19:12:53.482Z,9.74
2023-03-15T19:15:22.553Z,9.72
2023-03-15T19:17:54.486Z,10.10
2023-03-15T19:20:22.402Z,10.35
2023-03-15T19:22:51.827Z,10.26
2023-03-15T19:25:20.312Z,10.06
2023-03-15T19:27:47.209Z,9.93
2023-03-15T19:30:20.843Z,9.85
2023-03-15T19:32:48.523Z,9.81
2023-03-15T19:35:17.541Z,9.76
2023-03-15T19:37:44.537Z,9.73
2023-03-15T19:40:13.956Z,9.72
2023-03-15T19:42:41.431Z,9.67
2023-03-15T19:45:09.446Z,9.62
2023-03-15T19:47:36.279Z,9.58
2023-03-15T19:50:03.444Z,9.54
2023-03-15T19:52:30.326Z,9.51
2023-03-15T19:54:57.155Z,9.49
2023-03-15T19:57:23.987Z,9.44
2023-03-15T19:59:50.735Z,9.40
2023-03-15T20:02:17.549Z,9.37
2023-03-15T20:04:45.333Z,9.33
2023-03-15T20:07:12.349Z,9.30
2023-03-15T20:09:41.371Z,9.26
2023-03-15T20:12:11.200Z,9.26
2023-03-15T20:14:38.596Z,9.25
2023-03-15T20:17:05.798Z,9.24
2023-03-15T20:19:33.404Z,9.23
2023-03-15T20:22:00.412Z,9.23
2023-03-15T20:24:27.640Z,9.22
2023-03-15T20:26:54.628Z,9.21
2023-03-15T20:29:23.343Z,9.19
2023-03-15T20:31:50.902Z,9.15
2023-03-15T20:34:18.901Z,9.14
2023-03-15T20:36:45.699Z,9.11
2023-03-15T20:39:12.540Z,9.10
2023-03-15T20:41:39.300Z,9.08
2023-03-15T20:44:07.158Z,9.05
2023-03-15T20:46:34.282Z,9.01
2023-03-15T20:49:01.293Z,8.99
2023-03-15T20:51:28.178Z,8.96
2023-03-15T20:53:54.958Z,8.93
2023-03-15T20:56:21.879Z,8.89
2023-03-15T20:58:48.729Z,8.87
2023-03-15T21:01:16.762Z,8.83
2023-03-15T21:03:45.703Z,8.81
2023-03-15T21:06:13.484Z,8.78
2023-03-15T21:08:42.256Z,8.75
2023-03-15T21:11:09.489Z,8.73
2023-03-15T21:13:36.278Z,8.70
2023-03-15T21:16:04.487Z,8.67
2023-03-15T21:18:33.549Z,8.66
2023-03-15T21:21:07.233Z,8.63
2023-03-15T21:23:34.912Z,8.61
2023-03-15T21:26:07.829Z,8.60
2023-03-15T21:28:35.368Z,8.58
2023-03-15T21:31:04.011Z,8.55
2023-03-15T21:33:31.776Z,8.52
2023-03-15T21:36:00.345Z,8.48
2023-03-15T21:38:31.388Z,8.46
2023-03-15T21:40:59.746Z,8.43
2023-03-15T21:43:30.508Z,8.42
2023-03-15T21:46:05.559Z,8.40
2023-03-15T21:48:33.786Z,8.35
2023-03-15T21:51:02.025Z,8.33
2023-03-15T21:53:30.111Z,8.29
2023-03-15T21:55:58.888Z,8.26
2023-03-15T21:58:26.752Z,8.22
2023-03-15T22:01:13.962Z,8.19
2023-03-15T22:03:42.410Z,8.15
2023-03-15T22:06:09.192Z,8.14
2023-03-15T22:08:35.966Z,8.13
2023-03-15T22:11:04.586Z,8.12
2023-03-15T22:13:31.663Z,8.11
2023-03-15T22:15:58.734Z,8.08
2023-03-15T22:18:28.604Z,8.08
2023-03-15T22:20:56.429Z,8.06
2023-03-15T22:23:24.405Z,8.03
2023-03-15T22:25:53.532Z,8.03
2023-03-15T22:28:22.541Z,8.02
2023-03-15T22:30:49.968Z,8.00
2023-03-15T22:33:18.734Z,8.01
2023-03-15T22:35:45.996Z,8.00
2023-03-15T22:38:12.739Z,7.99
2023-03-15T22:40:41.089Z,7.97
2023-03-15T22:43:08.643Z,7.97
2023-03-15T22:45:36.063Z,7.93
2023-03-15T22:48:03.258Z,7.88
2023-03-15T22:50:30.959Z,7.85
2023-03-15T22:52:57.730Z,7.81
2023-03-15T22:55:24.993Z,7.78
2023-03-15T22:57:51.780Z,7.75
2023-03-15T23:00:22.082Z,7.72
2023-03-15T23:02:49.107Z,7.72
2023-03-15T23:05:16.396Z,7.71
2023-03-15T23:07:43.608Z,7.71
2023-03-15T23:10:11.801Z,7.70
2023-03-15T23:12:38.671Z,7.70
2023-03-15T23:15:06.474Z,7.72
2023-03-15T23:17:33.238Z,7.73
2023-03-15T23:19:59.970Z,7.75
2023-03-15T23:22:26.844Z,7.75
2023-03-15T23:24:58.336Z,7.75
2023-03-15T23:27:25.949Z,7.74
2023-03-15T23:29:54.760Z,7.74
2023-03-15T23:32:24.938Z,7.75
2023-03-15T23:34:53.525Z,7.76
2023-03-15T23:37:20.976Z,7.74
2023-03-15T23:39:47.781Z,7.73
2023-03-15T23:42:14.607Z,7.75
2023-03-15T23:44:41.575Z,7.73
2023-03-15T23:47:08.632Z,7.72
2023-03-15T23:49:35.775Z,7.72
2023-03-15T23:52:06.587Z,7.73
2023-03-15T23:54:39.647Z,7.73
2023-03-15T23:57:08.590Z,7.74
2023-03-15T23:59:36.977Z,7.75
